createdAt,value
2022-11-01T00:02:22.936Z,13.24
2022-11-01T00:04:51.299Z,13.24
2022-11-01T00:07:19.440Z,13.17
2022-11-01T00:09:50.583Z,13.10
2022-11-01T00:12:18.771Z,13.10
2022-11-01T00:14:49.516Z,13.08
2022-11-01T00:17:19.112Z,13.01
2022-11-01T00:19:49.927Z,13.16
2022-11-01T00:22:18.035Z,13.22
2022-11-01T00:24:47.938Z,13.33
2022-11-01T00:27:19.050Z,13.43
2022-11-01T00:29:47.170Z,13.33
2022-11-01T00:32:15.329Z,13.35
2022-11-01T00:34:43.699Z,13.49
2022-11-01T00:37:14.481Z,13.49
2022-11-01T00:39:43.195Z,13.51
2022-11-01T00:42:11.636Z,13.58
2022-11-01T00:44:40.103Z,13.54
2022-11-01T00:47:12.308Z,13.56
2022-11-01T00:49:41.823Z,13.44
2022-11-01T00:52:12.483Z,13.52
2022-11-01T00:54:42.320Z,13.58
2022-11-01T00:57:10.610Z,13.55
2022-11-01T00:59:41.009Z,13.52
2022-11-01T01:02:09.672Z,13.62
2022-11-01T01:04:42.459Z,13.58
2022-11-01T01:07:11.644Z,13.42
2022-11-01T01:09:44.058Z,13.59
2022-11-01T01:12:12.454Z,13.50
2022-11-01T01:14:48.041Z,13.47
2022-11-01T01:17:16.590Z,13.52
2022-11-01T01:19:45.099Z,13.44
2022-11-01T01:22:13.928Z,13.47
2022-11-01T01:24:46.021Z,13.52
2022-11-01T01:27:14.914Z,13.52
2022-11-01T01:29:47.129Z,13.52
2022-11-01T01:32:18.303Z,13.60
2022-11-01T01:34:46.702Z,13.55
2022-11-01T01:37:16.664Z,13.65
2022-11-01T01:39:46.666Z,13.63
2022-11-01T01:42:21.582Z,13.65
2022-11-01T01:45:22.865Z,13.69
2022-11-01T01:47:55.176Z,13.58
2022-11-01T01:50:33.402Z,13.53
2022-11-01T01:53:07.186Z,13.38
2022-11-01T01:55:43.459Z,13.53
2022-11-01T01:58:14.888Z,13.50
2022-11-01T02:00:47.222Z,13.40
2022-11-01T02:03:19.446Z,13.45
2022-11-01T02:05:52.407Z,13.43
2022-11-01T02:08:28.093Z,13.36
2022-11-01T02:11:04.631Z,13.50
2022-11-01T02:13:33.399Z,13.50
2022-11-01T02:16:28.987Z,13.50
2022-11-01T02:19:15.843Z,13.45
2022-11-01T02:22:03.496Z,13.47
2022-11-01T02:25:11.245Z,13.44
2022-11-01T02:28:02.539Z,13.47
2022-11-01T02:30:41.655Z,13.36
2022-11-01T02:33:25.650Z,13.49
2022-11-01T02:36:02.148Z,13.61
2022-11-01T02:38:42.742Z,13.59
2022-11-01T02:41:14.970Z,13.50
2022-11-01T02:43:52.981Z,13.57
2022-11-01T02:46:48.817Z,13.66
2022-11-01T02:49:24.305Z,13.56
2022-11-01T02:51:54.059Z,13.52
2022-11-01T02:54:24.440Z,13.58
2022-11-01T02:56:53.195Z,13.56
2022-11-01T02:59:26.776Z,13.66
2022-11-01T03:02:05.307Z,13.57
2022-11-01T03:04:39.359Z,13.56
2022-11-01T03:07:12.237Z,13.69
2022-11-01T03:09:42.194Z,13.65
2022-11-01T03:12:16.916Z,13.62
2022-11-01T03:14:55.495Z,13.65
2022-11-01T03:17:30.124Z,13.63
2022-11-01T03:20:08.919Z,13.54
2022-11-01T03:22:44.288Z,13.62
2022-11-01T03:25:31.317Z,13.51
2022-11-01T03:28:02.993Z,13.55
2022-11-01T03:30:34.838Z,13.39
2022-11-01T03:33:03.250Z,13.48
2022-11-01T03:35:39.184Z,13.44
2022-11-01T03:38:15.663Z,13.38
2022-11-01T03:40:51.136Z,13.38
2022-11-01T03:43:22.218Z,13.41
2022-11-01T03:45:50.806Z,13.40
2022-11-01T03:48:19.641Z,13.32
2022-11-01T03:50:53.912Z,13.45
2022-11-01T03:53:22.281Z,13.48
2022-11-01T03:55:54.218Z,13.43
2022-11-01T03:58:22.788Z,13.51
2022-11-01T04:00:56.060Z,13.46
2022-11-01T04:03:24.282Z,13.33
2022-11-01T04:05:54.312Z,13.46
2022-11-01T04:08:22.829Z,13.52
2022-11-01T04:10:52.877Z,13.44
2022-11-01T04:13:21.019Z,13.49
2022-11-01T04:16:06.370Z,13.56
2022-11-01T04:18:52.038Z,13.53
2022-11-01T04:21:27.104Z,13.50
2022-11-01T04:23:55.495Z,13.57
2022-11-01T04:26:26.152Z,13.50
2022-11-01T04:29:00.132Z,13.50
2022-11-01T04:31:31.262Z,13.59
2022-11-01T04:34:01.077Z,13.39
2022-11-01T04:36:32.202Z,13.51
2022-11-01T04:39:01.316Z,13.53
2022-11-01T04:41:31.356Z,13.51
2022-11-01T04:44:00.844Z,13.57
2022-11-01T04:46:32.230Z,13.42
2022-11-01T04:49:00.701Z,13.56
2022-11-01T04:51:28.932Z,13.57
2022-11-01T04:53:59.444Z,13.49
2022-11-01T04:56:27.873Z,13.55
2022-11-01T04:58:58.202Z,13.57
2022-11-01T05:01:26.740Z,13.55
2022-11-01T05:03:57.614Z,13.53
2022-11-01T05:06:28.175Z,13.43
2022-11-01T05:08:56.699Z,13.47
2022-11-01T05:11:26.885Z,13.56
2022-11-01T05:13:55.773Z,13.51
2022-11-01T05:16:24.219Z,13.51
2022-11-01T05:18:52.653Z,13.42
2022-11-01T05:21:21.113Z,13.51
2022-11-01T05:23:50.029Z,13.58
2022-11-01T05:26:18.590Z,13.53
2022-11-01T05:28:48.804Z,13.53
2022-11-01T05:31:17.037Z,13.61
2022-11-01T05:33:46.741Z,13.57
2022-11-01T05:36:15.259Z,13.67
2022-11-01T05:38:44.223Z,13.58
2022-11-01T05:43:41.918Z,13.66
2022-11-01T05:46:11.655Z,13.66
2022-11-01T05:48:40.159Z,13.69
2022-11-01T05:51:09.118Z,13.59
2022-11-01T05:53:39.960Z,13.65
2022-11-01T05:56:08.518Z,13.55
2022-11-01T05:58:37.614Z,13.60
2022-11-01T06:01:07.636Z,13.64
2022-11-01T06:03:39.448Z,13.68
2022-11-01T06:06:08.079Z,13.69
2022-11-01T06:08:38.247Z,13.72
2022-11-01T06:11:07.991Z,13.67
2022-11-01T06:13:36.663Z,13.71
2022-11-01T06:16:09.540Z,13.64
2022-11-01T06:18:39.596Z,13.74
2022-11-01T06:21:08.236Z,13.66
2022-11-01T06:23:37.419Z,13.67
2022-11-01T06:26:07.486Z,13.67
2022-11-01T06:28:36.265Z,13.74
2022-11-01T06:33:38.816Z,13.71
2022-11-01T06:36:07.768Z,13.75
2022-11-01T06:38:37.393Z,13.81
2022-11-01T06:41:06.186Z,13.90
2022-11-01T06:43:35.342Z,13.80
2022-11-01T06:46:04.340Z,13.80
2022-11-01T06:48:37.287Z,13.77
2022-11-01T06:51:07.749Z,13.96
2022-11-01T06:53:36.885Z,13.95
2022-11-01T06:56:07.945Z,13.99
2022-11-01T06:58:37.050Z,13.97
2022-11-01T07:01:05.742Z,13.89
2022-11-01T07:03:38.048Z,14.03
2022-11-01T07:06:09.630Z,14.00
2022-11-01T07:08:37.775Z,14.04
2022-11-01T07:11:06.606Z,14.07
2022-11-01T07:13:38.683Z,14.09
2022-11-01T07:16:08.276Z,14.04
2022-11-01T07:18:36.657Z,14.09
2022-11-01T07:21:06.434Z,14.07
2022-11-01T07:23:37.097Z,14.08
2022-11-01T07:26:05.886Z,13.97
2022-11-01T07:28:35.336Z,14.08
2022-11-01T07:31:04.454Z,14.04
2022-11-01T07:33:34.477Z,14.09
2022-11-01T07:36:13.278Z,14.13
2022-11-01T07:38:43.753Z,14.20
2022-11-01T07:41:12.268Z,14.30
2022-11-01T07:43:41.247Z,14.23
2022-11-01T07:46:12.779Z,14.31
2022-11-01T07:48:42.468Z,14.40
2022-11-01T07:51:11.043Z,14.48
2022-11-01T07:53:40.506Z,14.47
2022-11-01T07:56:22.490Z,14.54
2022-11-01T07:58:53.078Z,14.66
2022-11-01T08:01:30.144Z,14.61
2022-11-01T08:03:59.036Z,14.49
2022-11-01T08:06:30.738Z,14.63
2022-11-01T08:08:59.542Z,14.83
2022-11-01T08:11:30.206Z,14.89
2022-11-01T08:14:02.933Z,15.11
2022-11-01T08:16:35.126Z,15.12
2022-11-01T08:19:05.015Z,15.32
2022-11-01T08:21:33.601Z,15.35
2022-11-01T08:24:05.152Z,15.35
2022-11-01T08:26:34.654Z,15.39
2022-11-01T08:29:07.825Z,15.38
2022-11-01T08:31:36.723Z,15.46
2022-11-01T08:34:28.643Z,15.40
2022-11-01T08:36:59.686Z,15.59
2022-11-01T08:39:28.899Z,15.48
2022-11-01T08:42:01.716Z,15.60
2022-11-01T08:44:30.813Z,15.90
2022-11-01T08:47:01.260Z,15.83
2022-11-01T08:49:29.839Z,15.82
2022-11-01T08:51:58.365Z,15.88
2022-11-01T08:54:28.918Z,15.91
2022-11-01T08:57:02.135Z,15.92
2022-11-01T08:59:31.383Z,15.78
2022-11-01T09:02:00.054Z,15.77
2022-11-01T09:04:31.312Z,15.76
2022-11-01T09:06:59.792Z,15.77
2022-11-01T09:09:29.873Z,15.76
2022-11-01T09:12:00.463Z,15.88
2022-11-01T09:14:31.593Z,15.48
2022-11-01T09:17:02.268Z,15.48
2022-11-01T09:19:30.708Z,15.33
2022-11-01T09:22:02.020Z,15.51
2022-11-01T09:24:31.723Z,15.64
2022-11-01T09:27:02.084Z,15.74
2022-11-01T09:29:30.632Z,15.77
2022-11-01T09:32:00.358Z,15.72
2022-11-01T09:34:31.366Z,15.70
2022-11-01T09:37:00.537Z,15.70
2022-11-01T09:39:29.269Z,15.64
2022-11-01T09:42:03.925Z,15.80
2022-11-01T09:44:37.761Z,15.99
2022-11-01T09:47:09.899Z,15.93
2022-11-01T09:49:42.461Z,16.14
2022-11-01T09:52:21.104Z,16.32
2022-11-01T09:54:50.402Z,16.34
2022-11-01T09:57:28.957Z,16.19
2022-11-01T10:00:06.396Z,15.98
2022-11-01T10:02:57.890Z,16.08
2022-11-01T10:06:02.261Z,15.99
2022-11-01T10:08:53.027Z,16.22
2022-11-01T10:11:48.231Z,16.52
2022-11-01T10:14:34.278Z,16.54
2022-11-01T10:17:13.544Z,16.16
2022-11-01T10:19:48.658Z,16.26
2022-11-01T10:22:19.930Z,16.12
2022-11-01T10:24:53.197Z,15.88
2022-11-01T10:27:34.576Z,15.89
2022-11-01T10:30:14.340Z,15.81
2022-11-01T10:32:48.799Z,15.77
2022-11-01T10:35:22.872Z,15.74
2022-11-01T10:38:11.154Z,15.87
2022-11-01T10:40:53.422Z,15.84
2022-11-01T10:43:24.598Z,15.97
2022-11-01T10:45:59.725Z,15.87
2022-11-01T10:48:34.867Z,15.95
2022-11-01T10:51:06.681Z,16.10
2022-11-01T10:53:42.508Z,16.26
2022-11-01T10:56:19.865Z,16.15
2022-11-01T10:59:00.716Z,16.40
2022-11-01T11:01:33.989Z,17.01
2022-11-01T11:04:05.179Z,17.21
2022-11-01T11:06:38.593Z,17.43
2022-11-01T11:09:08.066Z,17.53
2022-11-01T11:11:40.929Z,17.80
2022-11-01T11:14:11.202Z,17.60
2022-11-01T11:16:47.049Z,17.45
2022-11-01T11:19:19.894Z,17.72
2022-11-01T11:21:51.003Z,18.05
2022-11-01T11:24:24.076Z,17.77
2022-11-01T11:26:55.235Z,17.60
2022-11-01T11:29:41.171Z,17.62
2022-11-01T11:32:17.222Z,17.57
2022-11-01T11:34:54.707Z,17.58
2022-11-01T11:37:27.493Z,17.91
2022-11-01T11:40:19.723Z,18.31
2022-11-01T11:42:50.474Z,18.12
2022-11-01T11:45:25.312Z,18.20
2022-11-01T11:47:56.285Z,18.36
2022-11-01T11:50:36.931Z,18.39
2022-11-01T11:53:08.810Z,18.66
2022-11-01T11:55:42.506Z,18.84
2022-11-01T11:58:23.130Z,18.74
2022-11-01T12:00:57.038Z,19.03
2022-11-01T12:03:27.782Z,18.82
2022-11-01T12:06:00.085Z,18.87
2022-11-01T12:08:39.037Z,18.82
2022-11-01T12:11:07.817Z,19.07
2022-11-01T12:13:38.502Z,18.81
2022-11-01T12:16:24.934Z,18.77
2022-11-01T12:19:03.372Z,19.07
2022-11-01T12:21:36.111Z,19.20
2022-11-01T12:24:17.428Z,19.26
2022-11-01T12:26:47.632Z,19.54
2022-11-01T12:29:26.595Z,19.27
2022-11-01T12:31:58.816Z,19.13
2022-11-01T12:34:37.153Z,19.12
2022-11-01T12:37:16.544Z,19.54
2022-11-01T12:39:51.223Z,19.67
2022-11-01T12:42:28.970Z,19.25
2022-11-01T12:45:04.983Z,19.25
2022-11-01T12:47:40.410Z,19.19
2022-11-01T12:50:21.624Z,18.65
2022-11-01T12:52:54.912Z,19.06
2022-11-01T12:55:32.508Z,19.58
2022-11-01T13:01:06.077Z,20.09
2022-11-01T13:03:45.783Z,20.33
2022-11-01T13:06:41.543Z,19.99
2022-11-01T13:09:16.435Z,20.33
2022-11-01T13:11:52.241Z,19.64
2022-11-01T13:14:38.015Z,19.93
2022-11-01T13:17:21.429Z,20.05
2022-11-01T13:20:01.129Z,21.09
2022-11-01T13:22:41.943Z,21.35
2022-11-01T13:25:19.786Z,21.12
2022-11-01T13:27:57.330Z,20.83
2022-11-01T13:30:26.810Z,20.42
2022-11-01T13:33:01.075Z,19.96
2022-11-01T13:35:49.681Z,19.46
2022-11-01T13:38:36.655Z,19.87
2022-11-01T13:41:19.759Z,19.60
2022-11-01T13:43:54.435Z,20.38
2022-11-01T13:46:48.479Z,20.00
2022-11-01T13:49:54.203Z,21.05
2022-11-01T13:52:28.722Z,19.84
2022-11-01T13:55:07.992Z,20.84
2022-11-01T13:57:41.178Z,21.28
2022-11-01T14:00:39.684Z,21.47
2022-11-01T14:03:37.419Z,22.00
2022-11-01T14:06:31.624Z,22.15
2022-11-01T14:09:31.649Z,22.24
2022-11-01T14:12:13.832Z,21.52
2022-11-01T14:14:53.511Z,22.11
2022-11-01T14:18:05.413Z,21.01
2022-11-01T14:20:52.226Z,21.35
2022-11-01T14:24:01.977Z,22.41
2022-11-01T14:27:02.209Z,22.39
2022-11-01T14:29:36.174Z,22.86
2022-11-01T14:32:06.118Z,22.51
2022-11-01T14:34:39.133Z,23.33
2022-11-01T14:37:19.409Z,24.32
2022-11-01T14:39:57.667Z,23.42
2022-11-01T14:42:37.299Z,23.61
2022-11-01T14:45:30.279Z,22.42
2022-11-01T14:48:03.048Z,22.66
2022-11-01T14:50:39.637Z,20.89
2022-11-01T14:53:12.569Z,21.45
2022-11-01T14:55:43.198Z,20.78
2022-11-01T14:58:20.442Z,21.88
2022-11-01T15:00:55.071Z,22.56
2022-11-01T15:03:24.919Z,23.23
2022-11-01T15:05:54.314Z,23.37
2022-11-01T15:08:30.381Z,23.81
2022-11-01T15:11:04.845Z,23.90
2022-11-01T15:13:39.339Z,23.28
2022-11-01T15:16:16.890Z,22.47
2022-11-01T15:18:49.688Z,20.53
2022-11-01T15:21:28.768Z,20.35
2022-11-01T15:24:08.675Z,21.38
2022-11-01T15:26:37.502Z,22.02
2022-11-01T15:29:08.462Z,22.14
2022-11-01T15:31:50.425Z,22.09
2022-11-01T15:34:25.278Z,22.88
2022-11-01T15:36:54.306Z,23.52
2022-11-01T15:39:29.340Z,22.48
2022-11-01T15:41:58.105Z,21.09
2022-11-01T15:44:28.300Z,19.88
2022-11-01T15:47:06.828Z,18.65
2022-11-01T15:49:38.760Z,17.94
2022-11-01T15:52:17.158Z,17.56
2022-11-01T15:54:53.627Z,16.79
2022-11-01T15:57:26.322Z,16.46
2022-11-01T16:00:05.784Z,16.53
2022-11-01T16:02:41.986Z,16.09
2022-11-01T16:05:12.947Z,16.07
2022-11-01T16:07:42.210Z,15.86
2022-11-01T16:10:17.965Z,15.78
2022-11-01T16:12:48.452Z,15.44
2022-11-01T16:15:24.314Z,15.40
2022-11-01T16:17:59.198Z,15.33
2022-11-01T16:20:34.155Z,14.87
2022-11-01T16:23:04.296Z,14.56
2022-11-01T16:25:35.355Z,14.59
2022-11-01T16:28:07.626Z,14.55
2022-11-01T16:30:42.890Z,14.42
2022-11-01T16:33:22.216Z,14.49
2022-11-01T16:35:52.215Z,14.48
2022-11-01T16:38:25.546Z,14.53
2022-11-01T16:40:56.515Z,14.33
2022-11-01T16:43:27.891Z,14.27
2022-11-01T16:45:56.530Z,14.25
2022-11-01T16:48:28.968Z,14.21
2022-11-01T16:50:59.134Z,14.15
2022-11-01T16:53:29.449Z,13.98
2022-11-01T16:56:34.961Z,13.75
2022-11-01T16:59:00.496Z,13.73
2022-11-01T17:01:35.326Z,13.73
2022-11-01T17:04:08.351Z,13.73
2022-11-01T17:06:39.130Z,13.71
2022-11-01T17:09:13.357Z,13.61
2022-11-01T17:11:47.895Z,13.80
2022-11-01T17:14:18.100Z,13.79
2022-11-01T17:16:49.260Z,13.59
2022-11-01T17:19:25.637Z,13.68
2022-11-01T17:21:56.306Z,13.54
2022-11-01T17:24:27.446Z,13.58
2022-11-01T17:27:02.059Z,13.38
2022-11-01T17:29:31.646Z,13.40
2022-11-01T17:32:01.182Z,13.46
2022-11-01T17:34:31.206Z,13.46
2022-11-01T17:36:59.952Z,13.44
2022-11-01T17:39:30.370Z,13.43
2022-11-01T17:41:59.496Z,13.45
2022-11-01T17:44:27.888Z,13.31
2022-11-01T17:46:56.274Z,13.27
2022-11-01T17:49:24.834Z,13.15
2022-11-01T17:51:55.366Z,13.31
2022-11-01T17:56:54.684Z,13.29
2022-11-01T17:59:24.918Z,13.17
2022-11-01T18:01:55.376Z,13.29
2022-11-01T18:04:24.384Z,13.36
2022-11-01T18:07:03.171Z,13.36
2022-11-01T18:09:31.400Z,13.20
2022-11-01T18:12:06.280Z,13.16
2022-11-01T18:14:49.374Z,13.01
2022-11-01T18:17:33.894Z,12.69
2022-11-01T18:20:11.125Z,12.59
2022-11-01T18:22:50.205Z,12.58
2022-11-01T18:25:29.969Z,12.47
2022-11-01T18:28:02.550Z,12.54
2022-11-01T18:30:31.829Z,12.41
2022-11-01T18:33:06.233Z,12.46
2022-11-01T18:35:39.647Z,12.37
2022-11-01T18:38:21.923Z,12.30
2022-11-01T18:40:57.399Z,12.30
2022-11-01T18:43:28.200Z,12.18
2022-11-01T18:46:23.339Z,12.08
2022-11-01T18:48:46.198Z,12.12
2022-11-01T18:51:20.215Z,12.25
2022-11-01T18:53:54.586Z,12.22
2022-11-01T18:56:25.616Z,12.20
2022-11-01T18:58:55.721Z,12.41
2022-11-01T19:01:31.973Z,12.39
2022-11-01T19:04:03.423Z,12.44
2022-11-01T19:06:35.702Z,12.42
2022-11-01T19:09:17.774Z,12.12
2022-11-01T19:11:46.135Z,12.30
2022-11-01T19:14:22.953Z,12.22
2022-11-01T19:16:53.297Z,12.13
2022-11-01T19:19:22.349Z,12.06
2022-11-01T19:21:52.899Z,12.03
2022-11-01T19:24:35.243Z,11.74
2022-11-01T19:27:04.431Z,11.86
2022-11-01T19:29:35.655Z,11.81
2022-11-01T19:32:06.809Z,11.78
2022-11-01T19:34:38.783Z,11.79
2022-11-01T19:37:23.064Z,11.59
2022-11-01T19:39:56.208Z,11.51
2022-11-01T19:42:29.051Z,11.56
2022-11-01T19:45:00.592Z,11.71
2022-11-01T19:47:39.187Z,11.56
2022-11-01T19:50:26.646Z,11.49
2022-11-01T19:52:59.702Z,11.62
2022-11-01T19:55:39.895Z,11.44
2022-11-01T19:58:26.908Z,11.38
2022-11-01T20:01:30.084Z,11.45
2022-11-01T20:04:01.457Z,11.47
2022-11-01T20:06:33.675Z,10.98
2022-11-01T20:09:05.739Z,10.70
2022-11-01T20:11:36.208Z,10.88
2022-11-01T20:14:05.131Z,10.98
2022-11-01T20:16:33.980Z,11.09
2022-11-01T20:19:02.491Z,11.29
2022-11-01T20:21:31.016Z,11.17
2022-11-01T20:24:00.177Z,11.19
2022-11-01T20:26:30.320Z,11.25
2022-11-01T20:29:00.763Z,11.27
2022-11-01T20:31:29.720Z,11.42
2022-11-01T20:34:00.480Z,11.45
2022-11-01T20:36:30.861Z,11.38
2022-11-01T20:38:59.229Z,11.40
2022-11-01T20:41:27.956Z,11.51
2022-11-01T20:43:56.829Z,11.53
2022-11-01T20:46:27.163Z,11.63
2022-11-01T20:48:56.377Z,11.59
2022-11-01T20:51:29.863Z,11.54
2022-11-01T20:54:00.342Z,11.64
2022-11-01T20:56:30.002Z,11.62
2022-11-01T20:58:58.738Z,11.63
2022-11-01T21:01:30.106Z,11.59
2022-11-01T21:04:02.955Z,11.42
2022-11-01T21:06:33.824Z,11.49
2022-11-01T21:09:03.942Z,11.54
2022-11-01T21:11:44.358Z,11.36
2022-11-01T21:14:17.248Z,11.44
2022-11-01T21:16:48.213Z,11.39
2022-11-01T21:19:22.778Z,11.32
2022-11-01T21:21:54.681Z,11.23
2022-11-01T21:24:31.411Z,11.23
2022-11-01T21:27:25.015Z,11.12
2022-11-01T21:29:55.626Z,10.99
2022-11-01T21:32:44.151Z,11.01
2022-11-01T21:35:41.305Z,10.95
2022-11-01T21:38:35.547Z,11.00
2022-11-01T21:41:17.213Z,10.83
2022-11-01T21:43:47.570Z,10.66
2022-11-01T21:46:18.732Z,10.66
2022-11-01T21:48:49.386Z,10.68
2022-11-01T21:51:18.450Z,10.67
2022-11-01T21:53:48.154Z,10.61
2022-11-01T21:56:16.515Z,10.67
2022-11-01T21:58:45.104Z,10.56
2022-11-01T22:01:14.117Z,10.63
2022-11-01T22:03:43.822Z,10.51
2022-11-01T22:06:15.310Z,10.25
2022-11-01T22:08:44.107Z,10.29
2022-11-01T22:11:15.242Z,10.33
2022-11-01T22:13:48.451Z,10.35
2022-11-01T22:16:16.656Z,10.29
2022-11-01T22:18:45.624Z,10.39
2022-11-01T22:21:16.092Z,10.35
2022-11-01T22:23:44.574Z,10.39
2022-11-01T22:26:13.292Z,10.40
2022-11-01T22:28:42.970Z,10.32
2022-11-01T22:31:11.488Z,10.30
2022-11-01T22:33:40.537Z,10.37
2022-11-01T22:36:13.953Z,10.43
2022-11-01T22:38:46.888Z,10.51
2022-11-01T22:41:18.112Z,10.43
2022-11-01T22:43:49.789Z,10.49
2022-11-01T22:46:22.022Z,10.53
2022-11-01T22:48:53.146Z,10.43
2022-11-01T22:51:29.004Z,10.49
2022-11-01T22:54:01.230Z,10.39
2022-11-01T22:56:36.226Z,10.32
2022-11-01T22:59:04.916Z,10.36
2022-11-01T23:01:34.638Z,10.13
2022-11-01T23:04:04.737Z,10.23
2022-11-01T23:06:35.223Z,10.23
2022-11-01T23:09:16.530Z,10.25
2022-11-01T23:12:03.444Z,10.06
2022-11-01T23:14:41.063Z,9.85
2022-11-01T23:17:22.680Z,10.00
2022-11-01T23:19:59.470Z,10.06
2022-11-01T23:22:32.782Z,10.02
2022-11-01T23:25:02.914Z,9.95
2022-11-01T23:27:33.475Z,10.02
2022-11-01T23:30:03.542Z,9.89
2022-11-01T23:32:34.201Z,9.93
2022-11-01T23:35:11.567Z,9.94
2022-11-01T23:37:45.021Z,10.01
2022-11-01T23:40:23.270Z,10.29
2022-11-01T23:42:55.234Z,10.12
2022-11-01T23:45:35.020Z,10.12
2022-11-01T23:48:05.097Z,10.11
2022-11-01T23:50:35.720Z,10.18
2022-11-01T23:53:08.049Z,10.13
2022-11-01T23:55:41.489Z,10.11
2022-11-01T23:58:13.807Z,10.00
